createdAt,value
2018-04-14T00:01:34.213Z,11.30
2018-04-14T00:04:00.167Z,11.30
2018-04-14T00:06:26.863Z,11.20
2018-04-14T00:08:52.868Z,11.20
2018-04-14T00:11:19.579Z,11.20
2018-04-14T00:13:45.523Z,11.10
2018-04-14T00:16:11.512Z,11.20
2018-04-14T00:18:37.508Z,11.20
2018-04-14T00:21:03.461Z,11.20
2018-04-14T00:23:30.186Z,11.20
2018-04-14T00:25:56.163Z,11.20
2018-04-14T00:28:22.151Z,11.10
2018-04-14T00:30:48.121Z,11.00
2018-04-14T00:33:14.820Z,10.90
2018-04-14T00:35:40.816Z,10.90
2018-04-14T00:38:06.820Z,11.00
2018-04-14T00:40:32.811Z,11.20
2018-04-14T00:42:58.763Z,11.10
2018-04-14T00:45:24.772Z,11.00
2018-04-14T00:47:50.719Z,10.90
2018-04-14T00:50:16.707Z,11.00
2018-04-14T00:52:42.696Z,11.00
2018-04-14T00:55:08.695Z,10.90
2018-04-14T00:57:35.446Z,10.80
2018-04-14T01:00:02.147Z,10.90
2018-04-14T01:02:28.096Z,10.80
2018-04-14T01:04:54.100Z,10.90
2018-04-14T01:07:20.053Z,10.90
2018-04-14T01:09:46.031Z,10.90
2018-04-14T01:12:12.017Z,10.90
2018-04-14T01:14:38.024Z,10.90
2018-04-14T01:17:03.990Z,10.80
2018-04-14T01:19:29.991Z,10.90
2018-04-14T01:21:56.688Z,11.00
2018-04-14T01:24:22.692Z,11.00
2018-04-14T01:26:48.652Z,11.00
2018-04-14T01:29:14.649Z,11.10
2018-04-14T01:31:41.380Z,11.10
2018-04-14T01:34:07.369Z,11.10
2018-04-14T01:36:33.307Z,11.10
2018-04-14T01:38:59.301Z,11.10
2018-04-14T01:41:26.048Z,11.10
2018-04-14T01:43:52.024Z,11.10
2018-04-14T01:46:18.020Z,11.20
2018-04-14T01:48:44.020Z,11.10
2018-04-14T01:51:10.000Z,11.00
2018-04-14T01:53:36.743Z,10.80
2018-04-14T01:56:02.708Z,10.70
2018-04-14T01:58:29.474Z,10.70
2018-04-14T02:00:55.440Z,10.70
2018-04-14T02:03:21.424Z,10.80
2018-04-14T02:05:48.143Z,10.80
2018-04-14T02:08:14.192Z,10.80
2018-04-14T02:10:40.164Z,10.80
2018-04-14T02:13:06.119Z,10.80
2018-04-14T02:15:32.100Z,10.80
2018-04-14T02:17:58.085Z,10.80
2018-04-14T02:20:24.072Z,10.90
2018-04-14T02:22:50.032Z,10.90
2018-04-14T02:25:16.764Z,10.90
2018-04-14T02:27:42.720Z,10.90
2018-04-14T02:30:09.426Z,10.80
2018-04-14T02:32:35.417Z,10.80
2018-04-14T02:35:01.437Z,10.80
2018-04-14T02:37:28.205Z,10.70
2018-04-14T02:39:54.171Z,10.70
2018-04-14T02:42:20.239Z,10.70
2018-04-14T02:44:46.224Z,10.60
2018-04-14T02:47:12.223Z,10.60
2018-04-14T02:49:38.207Z,10.60
2018-04-14T02:52:04.164Z,10.50
2018-04-14T02:54:30.192Z,10.40
2018-04-14T02:56:56.155Z,10.50
2018-04-14T02:59:22.159Z,10.50
2018-04-14T03:01:49.275Z,10.50
2018-04-14T03:04:15.285Z,10.50
2018-04-14T03:06:43.140Z,10.50
2018-04-14T03:09:09.100Z,10.50
2018-04-14T03:11:35.093Z,10.60
2018-04-14T03:14:01.051Z,10.60
2018-04-14T03:16:27.040Z,10.70
2018-04-14T03:18:53.768Z,10.70
2018-04-14T03:21:19.798Z,10.70
2018-04-14T03:23:45.776Z,10.70
2018-04-14T03:26:12.467Z,10.70
2018-04-14T03:28:38.452Z,10.70
2018-04-14T03:31:04.400Z,10.70
2018-04-14T03:33:31.247Z,10.70
2018-04-14T03:35:57.227Z,10.70
2018-04-14T03:38:23.196Z,10.80
2018-04-14T03:40:49.175Z,10.80
2018-04-14T03:43:15.124Z,10.80
2018-04-14T03:45:41.868Z,10.80
2018-04-14T03:48:07.854Z,10.80
2018-04-14T03:50:33.836Z,10.90
2018-04-14T03:52:59.804Z,10.90
2018-04-14T03:55:25.839Z,10.90
2018-04-14T03:57:51.790Z,11.00
2018-04-14T04:00:17.767Z,11.00
2018-04-14T04:02:44.484Z,11.00
2018-04-14T04:05:10.440Z,11.00
2018-04-14T04:07:36.415Z,11.10
2018-04-14T04:10:02.360Z,11.00
2018-04-14T04:12:28.363Z,11.00
2018-04-14T04:14:55.088Z,11.00
2018-04-14T04:17:21.080Z,11.00
2018-04-14T04:19:59.596Z,11.00
2018-04-14T04:22:37.919Z,11.00
2018-04-14T04:25:16.960Z,11.00
2018-04-14T04:27:43.655Z,11.10
2018-04-14T04:30:09.613Z,11.10
2018-04-14T04:32:35.600Z,11.10
2018-04-14T04:35:01.583Z,11.20
2018-04-14T04:37:27.631Z,11.20
2018-04-14T04:39:53.669Z,11.20
2018-04-14T04:42:19.620Z,11.30
2018-04-14T04:44:46.388Z,11.40
2018-04-14T04:47:12.340Z,11.40
2018-04-14T04:49:38.297Z,11.50
2018-04-14T04:52:04.278Z,11.30
2018-04-14T04:54:30.997Z,11.40
2018-04-14T04:56:56.974Z,11.40
2018-04-14T04:59:23.679Z,11.50
2018-04-14T05:01:50.412Z,11.50
2018-04-14T05:04:16.381Z,11.50
2018-04-14T05:06:42.340Z,11.50
2018-04-14T05:09:09.105Z,11.60
2018-04-14T05:11:35.060Z,11.50
2018-04-14T05:14:01.023Z,11.70
2018-04-14T05:16:27.020Z,11.70
2018-04-14T05:18:52.959Z,11.80
2018-04-14T05:21:18.937Z,11.80
2018-04-14T05:23:44.888Z,11.80
2018-04-14T05:26:10.884Z,11.60
2018-04-14T05:28:36.843Z,11.70
2018-04-14T05:31:02.828Z,11.80
2018-04-14T05:33:28.789Z,11.80
2018-04-14T05:35:54.792Z,11.80
2018-04-14T05:38:21.484Z,11.80
2018-04-14T05:40:47.459Z,11.80
2018-04-14T05:43:13.412Z,11.90
2018-04-14T05:45:40.196Z,11.90
2018-04-14T05:48:06.152Z,11.90
2018-04-14T05:50:32.104Z,11.80
2018-04-14T05:52:58.080Z,11.80
2018-04-14T05:55:24.810Z,11.80
2018-04-14T05:57:50.812Z,11.80
2018-04-14T06:00:16.803Z,11.90
2018-04-14T06:02:43.532Z,11.90
2018-04-14T06:05:09.504Z,11.90
2018-04-14T06:07:35.495Z,11.90
2018-04-14T06:10:01.477Z,11.90
2018-04-14T06:12:27.428Z,11.90
2018-04-14T06:14:53.410Z,11.90
2018-04-14T06:17:19.358Z,11.90
2018-04-14T06:19:46.083Z,12.00
2018-04-14T06:22:12.058Z,11.90
2018-04-14T06:24:38.808Z,12.00
2018-04-14T06:27:05.503Z,11.90
2018-04-14T06:29:31.466Z,11.90
2018-04-14T06:31:57.452Z,12.00
2018-04-14T06:34:23.459Z,12.10
2018-04-14T06:36:50.184Z,12.20
2018-04-14T06:39:16.176Z,12.10
2018-04-14T06:41:42.133Z,12.10
2018-04-14T06:44:08.091Z,12.30
2018-04-14T06:46:34.079Z,12.20
2018-04-14T06:49:00.087Z,12.00
2018-04-14T06:51:26.072Z,12.00
2018-04-14T06:53:52.057Z,12.10
2018-04-14T06:56:18.083Z,12.10
2018-04-14T06:58:44.080Z,12.10
2018-04-14T07:01:10.069Z,12.20
2018-04-14T07:03:36.055Z,12.20
2018-04-14T07:06:02.010Z,12.40
2018-04-14T07:08:27.995Z,12.40
2018-04-14T07:10:54.692Z,12.40
2018-04-14T07:13:20.694Z,12.40
2018-04-14T07:15:46.742Z,12.50
2018-04-14T07:18:12.733Z,12.60
2018-04-14T07:20:38.779Z,12.70
2018-04-14T07:23:04.709Z,12.80
2018-04-14T07:25:30.672Z,12.90
2018-04-14T07:27:56.701Z,13.10
2018-04-14T07:30:23.419Z,13.10
2018-04-14T07:32:49.411Z,13.10
2018-04-14T07:35:15.411Z,13.10
2018-04-14T07:37:41.439Z,13.20
2018-04-14T07:40:07.411Z,13.40
2018-04-14T07:42:33.428Z,13.50
2018-04-14T07:45:00.255Z,13.70
2018-04-14T07:47:26.216Z,13.60
2018-04-14T07:49:52.225Z,13.90
2018-04-14T07:52:18.240Z,14.20
2018-04-14T07:54:44.188Z,14.20
2018-04-14T07:57:10.199Z,14.30
2018-04-14T07:59:36.144Z,14.30
2018-04-14T08:02:02.099Z,14.20
2018-04-14T08:04:28.096Z,14.20
2018-04-14T08:06:54.036Z,14.10
2018-04-14T08:09:20.023Z,14.20
2018-04-14T08:11:45.979Z,14.20
2018-04-14T08:14:12.711Z,14.50
2018-04-14T08:16:38.695Z,14.50
2018-04-14T08:19:04.701Z,14.40
2018-04-14T08:21:31.415Z,14.50
2018-04-14T08:23:57.368Z,14.50
2018-04-14T08:26:23.364Z,14.60
2018-04-14T08:28:49.344Z,14.70
2018-04-14T08:31:15.321Z,14.80
2018-04-14T08:33:41.311Z,14.60
2018-04-14T08:36:07.263Z,14.40
2018-04-14T08:38:33.248Z,14.40
2018-04-14T08:40:59.208Z,14.40
2018-04-14T08:43:25.192Z,14.40
2018-04-14T08:45:51.919Z,14.20
2018-04-14T08:48:17.921Z,14.20
2018-04-14T08:50:43.888Z,14.30
2018-04-14T08:53:09.860Z,14.50
2018-04-14T08:55:36.608Z,14.80
2018-04-14T08:58:03.345Z,15.10
2018-04-14T09:00:29.320Z,15.00
2018-04-14T09:02:55.325Z,15.10
2018-04-14T09:05:22.071Z,15.30
2018-04-14T09:07:48.055Z,15.30
2018-04-14T09:10:14.046Z,15.30
2018-04-14T09:12:40.751Z,15.60
2018-04-14T09:15:16.039Z,15.60
2018-04-14T09:17:42.004Z,15.90
2018-04-14T09:20:08.732Z,16.20
2018-04-14T09:22:34.754Z,16.20
2018-04-14T09:25:00.741Z,16.30
2018-04-14T09:27:26.697Z,16.30
2018-04-14T09:29:52.677Z,16.40
2018-04-14T09:32:18.671Z,16.50
2018-04-14T09:34:44.663Z,16.60
2018-04-14T09:37:10.608Z,16.70
2018-04-14T09:39:37.336Z,16.80
2018-04-14T09:42:03.331Z,16.80
2018-04-14T09:44:29.299Z,16.90
2018-04-14T09:46:55.284Z,16.90
2018-04-14T09:49:21.332Z,17.00
2018-04-14T09:51:47.348Z,16.90
2018-04-14T09:54:14.093Z,16.90
2018-04-14T09:56:40.813Z,16.90
2018-04-14T09:59:06.760Z,16.90
2018-04-14T10:01:32.744Z,17.00
2018-04-14T10:03:58.751Z,17.20
2018-04-14T10:06:24.710Z,17.30
2018-04-14T10:08:50.715Z,17.40
2018-04-14T10:11:16.904Z,17.40
2018-04-14T10:13:42.857Z,17.40
2018-04-14T10:16:08.860Z,17.50
2018-04-14T10:18:34.894Z,17.50
2018-04-14T10:21:00.852Z,17.50
2018-04-14T10:23:27.581Z,17.70
2018-04-14T10:25:54.267Z,17.70
2018-04-14T10:28:20.247Z,17.70
2018-04-14T10:30:46.963Z,17.80
2018-04-14T10:33:12.932Z,17.80
2018-04-14T10:35:38.953Z,17.80
2018-04-14T10:38:04.991Z,17.80
2018-04-14T10:40:31.004Z,17.80
2018-04-14T10:42:56.983Z,18.10
2018-04-14T10:45:23.723Z,18.20
2018-04-14T10:47:49.710Z,18.10
2018-04-14T10:50:15.687Z,18.10
2018-04-14T10:52:41.759Z,18.20
2018-04-14T10:55:07.758Z,18.40
2018-04-14T10:57:33.759Z,18.50
2018-04-14T10:59:59.738Z,18.40
2018-04-14T11:02:25.725Z,18.50
2018-04-14T11:04:51.763Z,18.70
2018-04-14T11:07:17.774Z,18.70
2018-04-14T11:09:44.475Z,19.10
2018-04-14T11:12:10.469Z,19.00
2018-04-14T11:14:37.208Z,19.10
2018-04-14T11:17:03.916Z,18.90
2018-04-14T11:19:29.912Z,18.90
2018-04-14T11:21:56.622Z,18.90
2018-04-14T11:24:22.623Z,18.90
2018-04-14T11:26:48.617Z,19.00
2018-04-14T11:29:14.576Z,19.10
2018-04-14T11:31:41.307Z,19.20
2018-04-14T11:34:07.335Z,19.10
2018-04-14T11:36:33.337Z,19.30
2018-04-14T11:38:59.300Z,19.00
2018-04-14T11:41:25.303Z,19.10
2018-04-14T11:43:51.304Z,19.20
2018-04-14T11:46:18.016Z,19.40
2018-04-14T11:48:44.007Z,19.30
2018-04-14T11:51:09.968Z,19.20
2018-04-14T11:53:35.974Z,19.50
2018-04-14T11:56:02.016Z,19.50
2018-04-14T11:58:28.012Z,19.80
2018-04-14T12:00:54.001Z,19.90
2018-04-14T12:03:19.992Z,19.80
2018-04-14T12:05:45.962Z,19.80
2018-04-14T12:08:11.969Z,19.80
2018-04-14T12:10:37.969Z,20.00
2018-04-14T12:13:03.964Z,19.90
2018-04-14T12:15:29.984Z,20.10
2018-04-14T12:17:56.696Z,20.30
2018-04-14T12:20:22.760Z,20.20
2018-04-14T12:22:48.768Z,20.40
2018-04-14T12:25:14.716Z,20.20
2018-04-14T12:27:40.720Z,20.30
2018-04-14T12:30:06.736Z,20.20
2018-04-14T12:32:32.740Z,20.60
2018-04-14T12:34:58.700Z,21.80
2018-04-14T12:37:25.431Z,24.40
2018-04-14T12:39:51.401Z,24.40
2018-04-14T12:42:18.131Z,24.80
2018-04-14T12:44:44.083Z,24.70
2018-04-14T12:47:10.777Z,25.10
2018-04-14T12:49:36.829Z,25.10
2018-04-14T12:52:02.788Z,24.80
2018-04-14T12:54:28.755Z,25.10
2018-04-14T12:56:54.791Z,25.60
2018-04-14T12:59:20.751Z,25.20
2018-04-14T13:01:46.711Z,26.00
2018-04-14T13:04:12.691Z,26.00
2018-04-14T13:06:39.393Z,26.70
2018-04-14T13:09:05.403Z,26.70
2018-04-14T13:11:31.355Z,27.70
2018-04-14T13:13:57.346Z,27.70
2018-04-14T13:16:24.048Z,27.70
2018-04-14T13:18:50.030Z,27.70
2018-04-14T13:21:16.761Z,29.90
2018-04-14T13:23:42.753Z,29.90
2018-04-14T13:26:08.758Z,28.80
2018-04-14T13:28:35.536Z,30.20
2018-04-14T13:31:01.514Z,30.10
2018-04-14T13:33:27.564Z,29.40
2018-04-14T13:35:53.537Z,28.20
2018-04-14T13:38:19.544Z,27.30
2018-04-14T13:40:45.505Z,27.80
2018-04-14T13:43:12.208Z,31.10
2018-04-14T13:45:38.217Z,31.00
2018-04-14T13:48:04.175Z,29.30
2018-04-14T13:50:30.161Z,28.30
2018-04-14T13:52:56.897Z,29.00
2018-04-14T13:55:22.899Z,29.00
2018-04-14T13:57:48.888Z,29.00
2018-04-14T14:00:15.686Z,27.00
2018-04-14T14:02:42.357Z,26.80
2018-04-14T14:05:08.416Z,26.70
2018-04-14T14:07:34.403Z,28.10
2018-04-14T14:10:00.358Z,28.40
2018-04-14T14:12:26.356Z,28.80
2018-04-14T14:14:52.407Z,28.30
2018-04-14T14:17:18.412Z,28.80
2018-04-14T14:19:45.115Z,30.20
2018-04-14T14:22:11.097Z,30.10
2018-04-14T14:24:37.868Z,31.10
2018-04-14T14:27:03.824Z,31.10
2018-04-14T14:29:29.869Z,30.60
2018-04-14T14:31:55.823Z,31.00
2018-04-14T14:34:21.790Z,30.80
2018-04-14T14:36:47.776Z,29.30
2018-04-14T14:39:13.727Z,28.80
2018-04-14T14:41:39.782Z,29.40
2018-04-14T14:44:05.767Z,28.60
2018-04-14T14:46:31.766Z,28.30
2018-04-14T14:48:57.748Z,28.10
2018-04-14T14:51:23.732Z,27.60
2018-04-14T14:53:49.684Z,27.50
2018-04-14T14:56:16.391Z,25.60
2018-04-14T14:58:42.359Z,25.50
2018-04-14T15:01:08.361Z,25.50
2018-04-14T15:03:34.339Z,25.80
2018-04-14T15:06:00.284Z,25.20
2018-04-14T15:08:27.023Z,24.20
2018-04-14T15:10:53.440Z,24.20
2018-04-14T15:13:19.450Z,24.30
2018-04-14T15:15:45.432Z,24.80
2018-04-14T15:18:11.383Z,24.90
2018-04-14T15:20:37.386Z,24.00
2018-04-14T15:23:03.364Z,23.60
2018-04-14T15:25:30.076Z,23.20
2018-04-14T15:27:56.036Z,23.10
2018-04-14T15:30:22.043Z,23.20
2018-04-14T15:32:48.035Z,22.90
2018-04-14T15:35:14.018Z,23.00
2018-04-14T15:37:39.968Z,23.00
2018-04-14T15:40:05.948Z,23.00
2018-04-14T15:42:31.929Z,22.60
2018-04-14T15:44:57.910Z,22.20
2018-04-14T15:47:24.587Z,22.30
2018-04-14T15:49:50.611Z,22.30
2018-04-14T15:52:16.613Z,22.00
2018-04-14T15:54:42.600Z,21.80
2018-04-14T15:57:08.555Z,21.80
2018-04-14T15:59:34.599Z,21.80
2018-04-14T16:02:00.563Z,22.10
2018-04-14T16:04:26.614Z,22.20
2018-04-14T16:06:52.506Z,22.20
2018-04-14T16:09:18.556Z,22.10
2018-04-14T16:11:44.500Z,22.00
2018-04-14T16:14:10.584Z,22.00
2018-04-14T16:16:36.552Z,21.90
2018-04-14T16:19:03.302Z,21.80
2018-04-14T16:21:29.294Z,21.80
2018-04-14T16:23:55.271Z,21.60
2018-04-14T16:26:21.292Z,21.40
2018-04-14T16:28:47.312Z,21.20
2018-04-14T16:31:13.328Z,21.30
2018-04-14T16:33:40.056Z,21.20
2018-04-14T16:36:06.096Z,21.20
2018-04-14T16:38:32.125Z,21.00
2018-04-14T16:40:58.128Z,21.20
2018-04-14T16:43:24.085Z,21.20
2018-04-14T16:45:50.110Z,21.10
2018-04-14T16:48:16.068Z,21.00
2018-04-14T16:50:42.033Z,21.00
2018-04-14T16:53:08.776Z,21.20
2018-04-14T16:55:34.789Z,21.20
2018-04-14T16:58:00.844Z,21.10
2018-04-14T17:00:26.835Z,21.20
2018-04-14T17:02:52.827Z,21.10
2018-04-14T17:05:19.576Z,20.90
2018-04-14T17:07:51.695Z,20.90
2018-04-14T17:10:17.663Z,21.00
2018-04-14T17:12:43.732Z,20.80
2018-04-14T17:15:09.733Z,20.90
2018-04-14T17:17:35.760Z,20.90
2018-04-14T17:20:01.805Z,20.80
2018-04-14T17:22:27.756Z,20.80
2018-04-14T17:24:53.744Z,20.60
2018-04-14T17:27:19.760Z,20.60
2018-04-14T17:29:46.451Z,20.60
2018-04-14T17:32:12.443Z,20.50
2018-04-14T17:34:38.391Z,20.80
2018-04-14T17:37:05.181Z,20.60
2018-04-14T17:39:31.217Z,20.50
2018-04-14T17:41:57.544Z,20.60
2018-04-14T17:44:23.545Z,20.70
2018-04-14T17:46:49.515Z,20.80
2018-04-14T17:49:15.480Z,20.70
2018-04-14T17:51:41.432Z,20.70
2018-04-14T17:54:07.448Z,20.70
2018-04-14T17:56:33.481Z,20.60
2018-04-14T17:58:59.433Z,20.50
2018-04-14T18:01:25.452Z,20.40
2018-04-14T18:03:51.416Z,20.10
2018-04-14T18:06:17.389Z,19.90
2018-04-14T18:08:44.140Z,19.60
2018-04-14T18:11:10.848Z,19.50
2018-04-14T18:13:36.812Z,19.40
2018-04-14T18:16:02.815Z,19.30
2018-04-14T18:18:28.804Z,19.20
2018-04-14T18:20:54.768Z,19.20
2018-04-14T18:23:20.759Z,19.10
2018-04-14T18:25:46.756Z,19.00
2018-04-14T18:28:12.711Z,18.80
2018-04-14T18:30:38.691Z,18.90
2018-04-14T18:33:04.676Z,18.90
2018-04-14T18:35:30.719Z,18.90
2018-04-14T18:37:56.708Z,18.90
2018-04-14T18:40:22.693Z,18.70
2018-04-14T18:42:48.652Z,18.60
2018-04-14T18:45:15.392Z,18.30
2018-04-14T18:47:41.359Z,18.30
2018-04-14T18:50:07.353Z,18.10
2018-04-14T18:52:33.398Z,18.00
2018-04-14T18:54:59.360Z,17.80
2018-04-14T18:57:25.392Z,17.70
2018-04-14T18:59:51.352Z,17.50
2018-04-14T19:02:17.357Z,17.30
2018-04-14T19:04:43.336Z,17.10
2018-04-14T19:07:09.336Z,16.90
2018-04-14T19:09:36.078Z,16.80
2018-04-14T19:12:02.093Z,16.70
2018-04-14T19:14:28.103Z,17.00
2018-04-14T19:16:54.062Z,16.90
2018-04-14T19:19:20.096Z,17.00
2018-04-14T19:21:46.085Z,17.00
2018-04-14T19:24:15.141Z,16.90
2018-04-14T19:26:41.188Z,16.80
2018-04-14T19:29:07.887Z,16.60
2018-04-14T19:31:33.876Z,16.50
2018-04-14T19:34:00.592Z,16.30
2018-04-14T19:36:26.553Z,16.30
2018-04-14T19:38:52.537Z,16.20
2018-04-14T19:41:18.523Z,15.90
2018-04-14T19:43:44.521Z,15.80
2018-04-14T19:46:10.539Z,15.70
2018-04-14T19:48:36.584Z,15.70
2018-04-14T19:51:03.270Z,15.70
2018-04-14T19:53:29.264Z,15.70
2018-04-14T19:55:55.255Z,15.60
2018-04-14T19:58:21.215Z,15.50
2018-04-14T20:00:47.208Z,15.40
2018-04-14T20:03:13.952Z,15.70
2018-04-14T20:05:40.000Z,15.70
2018-04-14T20:08:05.988Z,15.70
2018-04-14T20:10:31.960Z,15.70
2018-04-14T20:12:57.988Z,15.70
2018-04-14T20:15:23.994Z,15.60
2018-04-14T20:17:50.724Z,15.20
2018-04-14T20:20:16.679Z,15.20
2018-04-14T20:22:43.437Z,15.10
2018-04-14T20:25:09.490Z,15.00
2018-04-14T20:27:35.408Z,15.20
2018-04-14T20:30:02.151Z,15.00
2018-04-14T20:32:29.007Z,15.00
2018-04-14T20:34:54.958Z,14.90
2018-04-14T20:37:20.911Z,14.90
2018-04-14T20:39:46.895Z,15.00
2018-04-14T20:42:12.905Z,15.10
2018-04-14T20:44:38.876Z,15.10
2018-04-14T20:47:04.861Z,15.00
2018-04-14T20:49:30.852Z,14.80
2018-04-14T20:51:57.555Z,14.60
2018-04-14T20:54:23.580Z,14.60
2018-04-14T20:56:49.539Z,14.40
2018-04-14T20:59:15.564Z,14.50
2018-04-14T21:01:41.607Z,14.60
2018-04-14T21:04:07.592Z,14.60
2018-04-14T21:06:34.322Z,14.40
2018-04-14T21:09:00.299Z,14.40
2018-04-14T21:11:27.424Z,14.50
2018-04-14T21:13:54.147Z,14.60
2018-04-14T21:16:20.164Z,14.60
2018-04-14T21:18:46.161Z,14.50
2018-04-14T21:21:12.210Z,14.40
2018-04-14T21:23:38.236Z,14.30
2018-04-14T21:26:04.336Z,14.20
2018-04-14T21:28:30.348Z,14.20
2018-04-14T21:30:56.304Z,14.00
2018-04-14T21:33:22.296Z,14.00
2018-04-14T21:35:49.004Z,14.00
2018-04-14T21:38:15.076Z,14.00
2018-04-14T21:40:41.848Z,14.00
2018-04-14T21:43:07.847Z,13.90
2018-04-14T21:45:33.807Z,13.90
2018-04-14T21:47:59.803Z,14.00
2018-04-14T21:50:25.780Z,14.00
2018-04-14T21:52:51.745Z,14.00
2018-04-14T21:55:17.744Z,13.90
2018-04-14T21:57:43.776Z,13.80
2018-04-14T22:00:09.799Z,13.80
2018-04-14T22:02:35.791Z,13.70
2018-04-14T22:05:01.812Z,13.70
2018-04-14T22:07:27.848Z,13.70
2018-04-14T22:09:54.587Z,13.50
2018-04-14T22:12:20.544Z,13.50
2018-04-14T22:14:47.256Z,13.50
2018-04-14T22:17:14.135Z,13.50
2018-04-14T22:19:40.145Z,13.40
2018-04-14T22:22:06.144Z,13.40
2018-04-14T22:24:32.091Z,13.40
2018-04-14T22:26:58.150Z,13.30
2018-04-14T22:29:24.159Z,13.20
2018-04-14T22:31:50.152Z,13.10
2018-04-14T22:34:16.167Z,13.20
2018-04-14T22:36:42.190Z,13.20
2018-04-14T22:39:08.200Z,13.10
2018-04-14T22:41:34.155Z,13.20
2018-04-14T22:44:00.143Z,13.10
2018-04-14T22:46:26.869Z,13.10
2018-04-14T22:48:52.850Z,13.00
2018-04-14T22:51:18.854Z,13.00
2018-04-14T22:53:44.865Z,13.00
2018-04-14T22:56:10.895Z,13.00
2018-04-14T22:58:36.895Z,12.90
2018-04-14T23:01:02.880Z,12.90
2018-04-14T23:03:28.949Z,12.80
2018-04-14T23:05:55.696Z,12.80
2018-04-14T23:08:21.653Z,12.70
2018-04-14T23:10:47.663Z,12.80
2018-04-14T23:13:13.668Z,12.70
2018-04-14T23:15:39.644Z,12.60
2018-04-14T23:18:06.411Z,12.60
2018-04-14T23:20:32.400Z,12.60
2018-04-14T23:22:58.441Z,12.60
2018-04-14T23:25:24.408Z,12.50
2018-04-14T23:27:50.412Z,12.60
2018-04-14T23:30:16.372Z,12.70
2018-04-14T23:32:42.352Z,12.70
2018-04-14T23:35:08.347Z,12.80
2018-04-14T23:37:35.064Z,12.60
2018-04-14T23:40:01.794Z,12.50
2018-04-14T23:42:27.791Z,12.50
2018-04-14T23:44:54.555Z,12.40
2018-04-14T23:47:21.260Z,12.40
2018-04-14T23:49:47.244Z,12.40
2018-04-14T23:52:14.015Z,12.30
2018-04-14T23:54:40.775Z,12.30
2018-04-14T23:57:06.778Z,12.20
2018-04-14T23:59:32.747Z,12.10
